Time;durP1;ratioP1;P1;durP2;ratioP2;P2;SDS_P1;SDS_P2;PMS_P1;PMS_P2;Temp;Humidity;BMP_temperature;BMP_pressure;BME280_temperature;BME280_humidity;BME280_pressure;Samples;Min_cycle;Max_cycle;Signal;HPM_P1;HPM_P2
2023/07/09 00:00:48;;;;;;;2.25;1.85;;;;;;;20.80;100.00;100940.56;4947383;28;20222;-81
2023/07/09 00:03:17;;;;;;;2.20;1.42;;;;;;;20.71;100.00;100939.00;4946493;28;20246;-81
2023/07/09 00:05:46;;;;;;;3.88;2.33;;;;;;;20.81;100.00;100947.75;4948680;28;20228;-81
2023/07/09 00:08:31;;;;;;;33.78;7.07;;;;;;;20.75;100.00;100950.56;4920428;28;20262;-83
2023/07/09 00:10:58;;;;;;;2.63;1.33;;;;;;;20.84;100.00;100934.22;4951740;28;20269;-82
2023/07/09 00:13:27;;;;;;;1.73;1.20;;;;;;;20.93;100.00;100930.44;4952190;28;20230;-83
2023/07/09 00:16:00;;;;;;;1.95;1.40;;;;;;;20.82;100.00;100936.06;4935800;28;20285;-83
2023/07/09 00:18:28;;;;;;;2.10;1.52;;;;;;;20.77;100.00;100946.91;4944649;28;20230;-83
2023/07/09 00:20:55;;;;;;;3.10;1.60;;;;;;;20.72;100.00;100964.94;4939729;29;20234;-84
2023/07/09 00:23:22;;;;;;;3.38;1.90;;;;;;;20.73;100.00;100961.34;4949496;28;20308;-83
2023/07/09 00:25:49;;;;;;;2.40;1.50;;;;;;;20.68;100.00;100960.56;4938954;28;20325;-82
2023/07/09 00:28:17;;;;;;;2.70;1.60;;;;;;;20.58;100.00;100963.50;4923422;29;20241;-82
2023/07/09 00:30:45;;;;;;;2.80;1.75;;;;;;;20.60;100.00;100976.00;4945360;28;20228;-83
2023/07/09 00:33:14;;;;;;;8.38;3.22;;;;;;;20.60;100.00;100980.50;4937277;28;20234;-82
2023/07/09 00:35:46;;;;;;;2.47;1.50;;;;;;;20.59;100.00;100979.59;4945592;28;20240;-83
2023/07/09 00:38:14;;;;;;;27.55;6.47;;;;;;;20.56;100.00;100987.72;4934915;28;20580;-82
2023/07/09 00:40:59;;;;;;;4.03;2.33;;;;;;;20.60;100.00;100986.75;4945308;28;20238;-82
2023/07/09 00:43:30;;;;;;;1.75;1.40;;;;;;;20.50;100.00;100987.88;4918959;29;20673;-82
2023/07/09 00:46:18;;;;;;;2.60;1.60;;;;;;;20.44;100.00;100985.34;4944055;28;20317;-82
2023/07/09 00:48:48;;;;;;;2.05;1.30;;;;;;;20.36;100.00;100977.41;4947562;28;20222;-82
2023/07/09 00:51:16;;;;;;;1.70;1.23;;;;;;;20.39;100.00;100987.25;4940323;28;20237;-82
2023/07/09 00:53:48;;;;;;;1.77;1.30;;;;;;;20.15;100.00;100975.19;4946522;28;20233;-82
2023/07/09 00:56:20;;;;;;;1.50;1.20;;;;;;;20.28;100.00;100971.31;4929618;29;20254;-82
2023/07/09 00:58:47;;;;;;;1.52;1.20;;;;;;;20.31;100.00;100992.75;4948417;29;20241;-82
2023/07/09 01:01:18;;;;;;;1.70;1.20;;;;;;;20.16;100.00;100990.41;4943076;28;20249;-83
2023/07/09 01:03:52;;;;;;;2.58;1.73;;;;;;;20.23;100.00;100985.78;4931051;29;20229;-83
2023/07/09 01:06:25;;;;;;;2.42;1.52;;;;;;;19.96;100.00;100987.25;4941585;28;20240;-82
2023/07/09 01:08:53;;;;;;;2.40;1.70;;;;;;;19.86;100.00;100978.50;4926798;29;20233;-82
2023/07/09 01:11:21;;;;;;;2.85;1.70;;;;;;;19.69;100.00;100980.66;4935472;28;20245;-82
2023/07/09 01:13:51;;;;;;;2.55;1.63;;;;;;;19.60;100.00;100986.19;4940545;28;20233;-83
2023/07/09 01:16:24;;;;;;;2.97;1.90;;;;;;;19.64;100.00;100982.53;4941394;28;20320;-83
2023/07/09 01:18:51;;;;;;;2.30;1.40;;;;;;;19.70;100.00;100977.03;4928786;29;20241;-82
2023/07/09 01:21:19;;;;;;;3.20;1.88;;;;;;;19.75;100.00;100993.94;4939018;28;20237;-83
2023/07/09 01:23:47;;;;;;;2.22;1.48;;;;;;;19.84;100.00;100992.88;4946785;28;20237;-83
2023/07/09 01:26:18;;;;;;;2.33;1.40;;;;;;;19.86;100.00;101007.16;4942255;28;20260;-82
2023/07/09 01:28:45;;;;;;;1.98;1.40;;;;;;;20.05;100.00;101008.53;4943077;28;20240;-83
2023/07/09 01:31:14;;;;;;;7.45;3.40;;;;;;;20.00;100.00;101000.56;4937375;28;20241;-82
2023/07/09 01:33:44;;;;;;;4.97;2.42;;;;;;;19.81;100.00;101001.88;4945666;28;20232;-82
2023/07/09 01:36:16;;;;;;;6.43;2.85;;;;;;;19.84;100.00;101004.50;4925089;29;20225;-82
2023/07/09 01:38:43;;;;;;;2.60;1.67;;;;;;;19.74;100.00;100997.53;4939878;28;20218;-82
2023/07/09 01:41:14;;;;;;;6.55;3.28;;;;;;;19.75;100.00;101000.19;4943011;28;20226;-83
2023/07/09 01:43:42;;;;;;;2.75;1.70;;;;;;;19.56;100.00;100996.09;4943484;28;20304;-83
2023/07/09 01:46:09;;;;;;;6.85;3.25;;;;;;;19.53;100.00;101006.88;4947156;28;20233;-83
2023/07/09 01:48:40;;;;;;;4.10;2.47;;;;;;;19.50;100.00;101009.56;4947444;28;20247;-83
2023/07/09 01:51:09;;;;;;;4.72;2.20;;;;;;;19.46;100.00;100997.13;4941189;28;20230;-83
2023/07/09 01:53:37;;;;;;;2.97;1.75;;;;;;;19.45;100.00;100995.34;4934792;28;20225;-82
2023/07/09 01:56:07;;;;;;;7.53;3.25;;;;;;;19.07;100.00;100991.56;4921159;28;20218;-83
2023/07/09 01:58:34;;;;;;;2.63;1.52;;;;;;;18.99;100.00;100993.47;4948378;28;20225;-82
2023/07/09 02:01:01;;;;;;;6.50;3.20;;;;;;;18.94;100.00;100989.09;4946462;28;20234;-82
2023/07/09 02:03:28;;;;;;;3.25;2.13;;;;;;;18.81;100.00;100997.34;4948343;28;20705;-82
2023/07/09 02:05:57;;;;;;;2.92;1.80;;;;;;;19.01;100.00;101001.50;4930195;29;20249;-83
2023/07/09 02:08:24;;;;;;;3.38;1.98;;;;;;;19.12;100.00;100999.50;4940752;28;20233;-83
2023/07/09 02:10:51;;;;;;;3.47;1.80;;;;;;;19.20;100.00;101019.03;4918725;29;20281;-82
2023/07/09 02:13:18;;;;;;;4.65;2.28;;;;;;;19.25;100.00;101024.31;4942324;28;20260;-83
2023/07/09 02:15:44;;;;;;;3.10;2.05;;;;;;;19.32;100.00;101020.63;4945099;28;20241;-83
2023/07/09 02:18:12;;;;;;;7.70;3.30;;;;;;;19.34;100.00;101019.69;4938509;28;20229;-82
2023/07/09 02:20:39;;;;;;;5.07;2.63;;;;;;;19.12;100.00;101013.81;4944545;28;20230;-83
2023/07/09 02:23:07;;;;;;;5.85;2.67;;;;;;;19.05;100.00;101024.66;4937238;29;20229;-82
2023/07/09 02:25:34;;;;;;;1.88;1.30;;;;;;;18.95;100.00;101023.91;4932595;29;20229;-83
2023/07/09 02:28:01;;;;;;;6.03;3.25;;;;;;;18.79;100.00;101019.72;4920944;28;20248;-83
2023/07/09 02:30:28;;;;;;;4.55;1.88;;;;;;;18.85;100.00;101019.63;4943570;28;20233;-83
2023/07/09 02:32:54;;;;;;;1.42;1.02;;;;;;;18.84;100.00;101010.69;4922965;29;20226;-84
2023/07/09 02:35:22;;;;;;;2.03;1.77;;;;;;;18.77;100.00;101019.72;4947842;28;20561;-82
2023/07/09 02:37:49;;;;;;;1.42;1.10;;;;;;;18.66;100.00;101018.13;4946222;28;20232;-82
2023/07/09 02:40:16;;;;;;;2.10;1.42;;;;;;;18.60;100.00;101024.41;4932837;28;20245;-82
2023/07/09 02:42:43;;;;;;;1.58;1.23;;;;;;;18.50;100.00;101025.47;4931985;28;20243;-83
2023/07/09 02:45:10;;;;;;;6.35;3.15;;;;;;;18.54;100.00;101035.22;4927171;29;20762;-82
2023/07/09 02:47:37;;;;;;;2.55;1.60;;;;;;;18.56;100.00;101036.09;4954815;28;20230;-83
2023/07/09 02:50:04;;;;;;;6.25;2.80;;;;;;;18.70;100.00;101050.22;4939190;28;20230;-83
2023/07/09 02:52:31;;;;;;;2.45;1.58;;;;;;;18.55;100.00;101053.06;4947193;28;20238;-83
2023/07/09 02:54:58;;;;;;;4.35;2.22;;;;;;;18.58;100.00;101060.19;4938276;28;20230;-83
2023/07/09 02:57:24;;;;;;;3.03;1.83;;;;;;;18.53;100.00;101063.81;4951752;28;20605;-82
2023/07/09 02:59:51;;;;;;;2.78;1.65;;;;;;;18.47;100.00;101063.00;4944348;28;20237;-83
2023/07/09 03:02:18;;;;;;;2.67;1.60;;;;;;;18.45;100.00;101071.06;4933835;28;20241;-82
2023/07/09 03:04:45;;;;;;;3.45;2.00;;;;;;;18.50;100.00;101076.34;4944224;28;20292;-82
2023/07/09 03:07:11;;;;;;;5.90;3.00;;;;;;;18.48;100.00;101078.16;4943294;28;20232;-83
2023/07/09 03:09:38;;;;;;;2.40;1.55;;;;;;;18.37;100.00;101085.44;4934876;29;20226;-83
2023/07/09 03:12:05;;;;;;;6.28;2.88;;;;;;;18.46;100.00;101088.00;4943089;28;20234;-82
2023/07/09 03:14:33;;;;;;;2.25;1.38;;;;;;;18.41;100.00;101092.53;4945262;29;20226;-82
2023/07/09 03:16:59;;;;;;;9.45;3.75;;;;;;;18.49;100.00;101091.53;4933862;29;20222;-82
2023/07/09 03:19:26;;;;;;;4.72;2.35;;;;;;;18.54;100.00;101097.72;4942593;28;20276;-82
2023/07/09 03:21:53;;;;;;;4.18;2.10;;;;;;;18.53;100.00;101093.28;4950046;28;20237;-83
2023/07/09 03:24:20;;;;;;;3.65;2.08;;;;;;;18.41;100.00;101095.22;4944119;28;20645;-82
2023/07/09 03:26:47;;;;;;;3.88;1.90;;;;;;;18.44;100.00;101092.50;4947053;28;20233;-83
2023/07/09 03:29:14;;;;;;;6.43;2.92;;;;;;;18.42;100.00;101095.19;4929399;28;20245;-83
2023/07/09 03:31:41;;;;;;;4.03;2.10;;;;;;;18.49;100.00;101096.00;4930853;28;20724;-83
2023/07/09 03:34:08;;;;;;;10.55;4.45;;;;;;;18.54;100.00;101081.66;4924238;28;20252;-83
2023/07/09 03:36:37;;;;;;;7.78;3.25;;;;;;;18.54;100.00;101091.47;4953153;28;20222;-82
2023/07/09 03:39:05;;;;;;;10.50;4.03;;;;;;;18.44;100.00;101095.19;4947959;28;20284;-83
2023/07/09 03:41:31;;;;;;;4.65;2.20;;;;;;;18.47;100.00;101101.38;4948847;28;20248;-82
2023/07/09 03:43:58;;;;;;;11.70;4.50;;;;;;;18.35;100.00;101109.56;4943497;28;20218;-82
2023/07/09 03:46:25;;;;;;;2.30;1.50;;;;;;;18.23;100.00;101107.94;4944087;28;20246;-82
2023/07/09 03:48:52;;;;;;;1.88;1.48;;;;;;;18.18;100.00;101115.09;4944547;28;20230;-83
2023/07/09 03:51:18;;;;;;;3.00;1.65;;;;;;;18.21;100.00;101123.13;4926989;28;20233;-82
2023/07/09 03:53:45;;;;;;;3.33;1.92;;;;;;;18.25;100.00;101126.66;4948211;28;20240;-82
2023/07/09 03:56:12;;;;;;;8.70;3.88;;;;;;;18.18;100.00;101123.13;4927748;28;20245;-83
2023/07/09 03:58:38;;;;;;;3.38;1.95;;;;;;;18.09;100.00;101122.34;4940863;28;20287;-82
2023/07/09 04:01:09;;;;;;;6.45;2.95;;;;;;;18.04;100.00;101125.06;4940013;28;20233;-83
2023/07/09 04:03:35;;;;;;;3.45;2.00;;;;;;;18.20;100.00;101134.75;4948097;28;20225;-83
2023/07/09 04:06:05;;;;;;;5.10;2.83;;;;;;;18.38;100.00;101135.44;4944119;28;20325;-83
2023/07/09 04:08:32;;;;;;;1.95;1.25;;;;;;;18.45;100.00;101142.47;4947572;28;20313;-82
2023/07/09 04:11:00;;;;;;;9.45;3.75;;;;;;;18.40;100.00;101147.00;4943050;28;20236;-83
2023/07/09 04:13:28;;;;;;;2.22;1.58;;;;;;;18.36;100.00;101143.47;4935257;28;20229;-83
2023/07/09 04:15:55;;;;;;;2.40;1.50;;;;;;;18.39;100.00;101151.47;4927503;28;20228;-83
2023/07/09 04:18:22;;;;;;;2.25;1.60;;;;;;;18.29;100.00;101162.31;4945210;28;20229;-82
2023/07/09 04:20:50;;;;;;;2.58;1.75;;;;;;;18.23;100.00;101168.63;4949099;28;20248;-82
2023/07/09 04:23:18;;;;;;;3.75;2.05;;;;;;;18.25;100.00;101165.94;4941457;28;20249;-82
2023/07/09 04:25:45;;;;;;;3.33;2.22;;;;;;;18.21;100.00;101152.56;4946670;28;20222;-82
2023/07/09 04:28:25;;;;;;;9.65;4.32;;;;;;;18.38;100.00;101165.78;4938850;28;20242;-83
2023/07/09 04:30:52;;;;;;;3.90;2.05;;;;;;;18.33;100.00;101167.63;4955110;28;20237;-82
2023/07/09 04:33:19;;;;;;;3.28;1.83;;;;;;;18.35;100.00;101170.28;4936198;28;20245;-83
2023/07/09 04:35:48;;;;;;;3.80;2.25;;;;;;;18.44;100.00;101178.22;4949481;28;20264;-82
2023/07/09 04:38:15;;;;;;;2.90;1.98;;;;;;;18.49;100.00;101192.44;4941081;28;20250;-83
2023/07/09 04:40:42;;;;;;;3.85;1.83;;;;;;;18.60;100.00;101176.22;4942956;28;20234;-83
2023/07/09 04:43:09;;;;;;;8.02;3.95;;;;;;;18.78;100.00;101158.16;4945586;28;20221;-83
2023/07/09 04:45:36;;;;;;;2.28;1.50;;;;;;;18.95;100.00;101141.84;4944458;28;20237;-83
2023/07/09 04:48:03;;;;;;;9.73;3.95;;;;;;;19.00;100.00;101123.91;4938865;28;20336;-83
2023/07/09 04:50:30;;;;;;;4.50;2.55;;;;;;;19.12;100.00;101088.00;4944650;28;20238;-87
2023/07/09 04:52:57;;;;;;;5.07;2.72;;;;;;;19.26;100.00;101082.41;4937887;28;20239;-85
2023/07/09 04:55:24;;;;;;;3.80;2.35;;;;;;;19.26;100.00;101048.44;4939392;28;20280;-83
2023/07/09 04:57:51;;;;;;;2.40;1.60;;;;;;;19.32;100.00;101045.63;4940722;28;20241;-84
2023/07/09 05:00:18;;;;;;;3.20;2.05;;;;;;;19.41;100.00;101032.06;4937856;28;20241;-84
2023/07/09 05:02:45;;;;;;;2.40;1.60;;;;;;;19.48;100.00;101022.09;4945739;28;20229;-83
2023/07/09 05:05:11;;;;;;;6.10;3.05;;;;;;;19.50;100.00;101034.63;4938186;28;20249;-84
2023/07/09 05:07:39;;;;;;;3.42;2.08;;;;;;;19.57;100.00;101056.00;4947695;28;20236;-85
2023/07/09 05:10:06;;;;;;;31.60;7.95;;;;;;;19.60;100.00;101042.53;4954350;23;20218;-78
2023/07/09 05:12:33;;;;;;;1.75;1.25;;;;;;;19.75;100.00;101034.19;4899711;29;20289;-78
2023/07/09 05:15:00;;;;;;;1.23;0.95;;;;;;;19.77;100.00;101033.25;4908118;29;20231;-78
2023/07/09 05:17:27;;;;;;;1.20;0.95;;;;;;;19.86;100.00;101029.50;4937121;29;20715;-79
2023/07/09 05:19:54;;;;;;;1.25;1.10;;;;;;;19.98;100.00;101039.13;4919547;29;20230;-78
2023/07/09 05:22:20;;;;;;;3.15;1.55;;;;;;;20.01;100.00;101007.72;4910247;29;20226;-75
2023/07/09 05:24:47;;;;;;;1.98;1.63;;;;;;;20.21;100.00;101017.16;4918206;29;20238;-76
2023/07/09 05:27:14;;;;;;;3.30;1.90;;;;;;;20.39;100.00;101051.72;4915522;29;24438;-78
2023/07/09 05:29:41;;;;;;;2.58;1.85;;;;;;;20.37;100.00;101008.72;4918619;29;20231;-75
2023/07/09 05:32:08;;;;;;;4.60;2.22;;;;;;;20.54;100.00;101007.50;4908572;29;20226;-74
2023/07/09 05:34:34;;;;;;;2.50;1.70;;;;;;;20.68;100.00;101035.81;4923055;29;20233;-75
2023/07/09 05:37:01;;;;;;;5.18;2.20;;;;;;;20.67;100.00;101012.56;4913726;29;20218;-75
2023/07/09 05:39:28;;;;;;;2.45;1.60;;;;;;;20.75;100.00;101012.38;4920613;29;20235;-76
2023/07/09 05:41:55;;;;;;;2.50;1.60;;;;;;;20.91;100.00;101003.06;4915542;29;20234;-76
2023/07/09 05:44:22;;;;;;;2.35;1.92;;;;;;;21.01;100.00;101018.03;4919015;29;20244;-75
2023/07/09 05:46:49;;;;;;;2.05;1.45;;;;;;;21.09;100.00;101021.41;4921445;29;20237;-75
2023/07/09 05:49:15;;;;;;;2.22;1.50;;;;;;;21.25;100.00;101026.44;4913673;29;20262;-75
2023/07/09 05:51:42;;;;;;;2.55;1.63;;;;;;;21.36;100.00;101030.63;4920817;29;20250;-74
2023/07/09 05:54:09;;;;;;;4.28;2.05;;;;;;;21.50;100.00;101029.38;4918055;29;20226;-74
2023/07/09 05:56:36;;;;;;;3.33;1.70;;;;;;;21.70;100.00;101025.22;4915427;29;20337;-73
2023/07/09 05:59:03;;;;;;;6.35;2.80;;;;;;;21.90;100.00;101010.31;4915836;29;20699;-73
2023/07/09 06:01:29;;;;;;;2.42;1.65;;;;;;;22.08;100.00;101001.75;4917439;29;20238;-73
2023/07/09 06:03:56;;;;;;;2.25;1.45;;;;;;;22.25;100.00;100999.47;4914248;29;20270;-73
2023/07/09 06:06:23;;;;;;;2.65;1.52;;;;;;;22.36;100.00;100999.16;4924821;29;20415;-73
2023/07/09 06:08:50;;;;;;;1.75;1.45;;;;;;;22.38;100.00;100985.63;4921233;29;20222;-73
2023/07/09 06:11:17;;;;;;;2.65;1.40;;;;;;;22.48;100.00;100997.88;4922668;29;20252;-74
2023/07/09 06:13:46;;;;;;;5.45;3.00;;;;;;;22.48;100.00;100979.91;4938384;28;20256;-74
2023/07/09 06:16:13;;;;;;;7.50;2.67;;;;;;;22.59;100.00;100963.38;4939816;29;20265;-74
2023/07/09 06:18:40;;;;;;;2.55;1.73;;;;;;;22.86;100.00;100954.41;4924351;29;20233;-73
2023/07/09 06:21:09;;;;;;;6.57;2.63;;;;;;;23.14;100.00;100945.38;4934219;28;20229;-73
2023/07/09 06:23:35;;;;;;;2.55;1.70;;;;;;;23.30;100.00;100931.31;4931103;29;20758;-72
2023/07/09 06:26:02;;;;;;;3.65;2.45;;;;;;;23.30;100.00;100908.84;4934697;29;20802;-73
2023/07/09 06:28:30;;;;;;;1.98;1.42;;;;;;;23.43;100.00;100887.72;4922669;29;20774;-73
2023/07/09 06:30:57;;;;;;;3.25;2.13;;;;;;;23.64;100.00;100881.53;4933626;29;20305;-74
2023/07/09 06:33:25;;;;;;;3.20;1.73;;;;;;;23.74;100.00;100864.03;4943773;29;20328;-76
2023/07/09 06:36:00;;;;;;;2.70;1.75;;;;;;;23.92;100.00;100848.94;4925485;29;20236;-79
2023/07/09 06:38:28;;;;;;;2.45;2.00;;;;;;;24.00;100.00;100829.72;4939775;29;20225;-76
2023/07/09 06:40:56;;;;;;;2.92;1.75;;;;;;;24.32;100.00;100815.81;4940347;29;20232;-77
2023/07/09 06:43:23;;;;;;;2.53;1.63;;;;;;;24.42;100.00;100800.09;4941510;29;20229;-75
2023/07/09 06:45:58;;;;;;;1.70;1.40;;;;;;;24.46;100.00;100775.56;4938249;29;20217;-75
2023/07/09 06:48:26;;;;;;;1.80;1.33;;;;;;;24.28;100.00;100749.31;4938031;28;20240;-77
2023/07/09 06:50:54;;;;;;;4.05;2.35;;;;;;;24.63;100.00;100782.06;4938945;29;20249;-78
2023/07/09 06:53:22;;;;;;;2.67;1.95;;;;;;;24.69;100.00;100755.63;4908715;29;20248;-77
2023/07/09 06:55:49;;;;;;;2.22;1.55;;;;;;;24.82;100.00;100737.06;4934866;29;20222;-76
2023/07/09 06:58:17;;;;;;;2.63;1.52;;;;;;;24.95;100.00;100713.91;4933287;29;20362;-76
2023/07/09 07:00:44;;;;;;;3.33;2.00;;;;;;;25.30;100.00;100695.19;4938890;29;20712;-81
2023/07/09 07:03:10;;;;;;;2.38;1.55;;;;;;;25.52;100.00;100691.34;4936186;29;20229;-77
2023/07/09 07:05:40;;;;;;;3.00;1.92;;;;;;;25.62;100.00;100682.78;4919477;29;20236;-79
2023/07/09 07:08:07;;;;;;;4.07;2.00;;;;;;;25.55;100.00;100662.38;4904471;29;20237;-77
2023/07/09 07:10:33;;;;;;;5.05;2.92;;;;;;;25.80;100.00;100649.38;4936613;29;20321;-76
2023/07/09 07:13:00;;;;;;;5.60;2.50;;;;;;;25.72;100.00;100601.00;4922037;29;20280;-76
2023/07/09 07:15:27;;;;;;;2.65;1.85;;;;;;;26.10;100.00;100622.59;4940748;29;20737;-76
2023/07/09 07:17:54;;;;;;;3.45;2.15;;;;;;;26.53;100.00;100623.03;4937452;28;20221;-76
2023/07/09 07:20:21;;;;;;;4.00;2.28;;;;;;;26.34;100.00;100542.69;4930943;29;20235;-77
2023/07/09 07:22:47;;;;;;;3.38;1.85;;;;;;;26.72;100.00;100575.84;4939802;29;20716;-77
2023/07/09 07:25:15;;;;;;;4.18;2.10;;;;;;;26.66;100.00;100542.75;4931859;29;20904;-76
2023/07/09 07:27:41;;;;;;;3.00;1.63;;;;;;;27.05;100.00;100542.34;4937981;29;20634;-76
2023/07/09 07:30:09;;;;;;;7.32;3.03;;;;;;;27.01;100.00;100481.06;4932404;29;20249;-75
2023/07/09 07:32:37;;;;;;;5.47;2.65;;;;;;;27.25;100.00;100449.75;4939966;29;20701;-75
2023/07/09 07:35:05;;;;;;;5.78;2.35;;;;;;;27.43;100.00;100439.66;4938868;29;20280;-76
2023/07/09 07:37:32;;;;;;;3.10;1.73;;;;;;;26.91;100.00;100355.00;4925141;29;20236;-76
2023/07/09 07:39:58;;;;;;;2.53;1.42;;;;;;;27.57;100.00;100445.13;4921624;29;20235;-76
2023/07/09 07:42:25;;;;;;;4.18;2.42;;;;;;;28.18;100.00;100460.34;4942540;29;20705;-76
2023/07/09 07:44:52;;;;;;;8.27;3.53;;;;;;;27.40;100.00;100309.50;4935065;29;20229;-76
2023/07/09 07:47:19;;;;;;;5.78;2.75;;;;;;;27.51;100.00;100301.53;4935899;29;20240;-77
2023/07/09 07:49:46;;;;;;;6.82;2.67;;;;;;;28.09;100.00;100364.91;4925293;29;20772;-76
2023/07/09 07:52:13;;;;;;;7.85;3.13;;;;;;;27.74;100.00;100245.75;4930891;29;20244;-76
2023/07/09 07:54:40;;;;;;;6.82;3.20;;;;;;;28.21;100.00;100299.72;4905862;29;20316;-78
2023/07/09 07:57:08;;;;;;;8.85;3.45;;;;;;;28.09;100.00;100232.56;4920699;29;20308;-76
2023/07/09 07:59:36;;;;;;;6.45;3.03;;;;;;;28.34;100.00;100265.31;4941326;29;20315;-77
2023/07/09 08:02:06;;;;;;;6.75;2.70;;;;;;;29.12;100.00;100325.34;4921681;29;20713;-77
2023/07/09 08:04:32;;;;;;;4.00;2.15;;;;;;;29.30;100.00;100206.94;4909270;29;20307;-76
2023/07/09 08:06:59;;;;;;;6.32;3.00;;;;;;;28.87;100.00;100190.06;4938018;29;20235;-76
2023/07/09 08:09:26;;;;;;;3.53;2.13;;;;;;;28.63;100.00;100137.34;4940905;29;20682;-76
2023/07/09 08:11:53;;;;;;;3.15;1.73;;;;;;;28.47;100.00;100147.53;4942180;29;20255;-76
2023/07/09 08:14:19;;;;;;;4.47;2.53;;;;;;;28.81;100.00;100143.34;4937654;29;20236;-76
2023/07/09 08:16:47;;;;;;;4.10;2.15;;;;;;;29.65;100.00;100192.63;4942123;29;20232;-76
2023/07/09 08:19:18;;;;;;;4.10;2.13;;;;;;;29.46;100.00;100132.28;4924610;29;21557;-77
2023/07/09 08:21:45;;;;;;;3.45;1.65;;;;;;;30.00;100.00;100191.88;4940826;29;20240;-76
2023/07/09 08:24:14;;;;;;;7.55;2.33;;;;;;;30.43;100.00;100174.00;4919086;28;20232;-76
2023/07/09 08:26:41;;;;;;;2.55;1.20;;;;;;;30.70;100.00;100146.41;4907445;29;20288;-77
2023/07/09 08:29:08;;;;;;;6.85;2.72;;;;;;;31.38;100.00;100170.09;4931877;28;20233;-77
2023/07/09 08:31:34;;;;;;;3.75;1.60;;;;;;;30.96;100.00;100102.50;4941629;29;20706;-77
2023/07/09 08:34:01;;;;;;;12.15;3.47;;;;;;;31.27;95.57;100038.97;4915913;29;20221;-77
2023/07/09 08:36:28;;;;;;;5.05;2.20;;;;;;;31.41;93.18;100013.22;4938988;29;20233;-77
2023/07/09 08:38:56;;;;;;;3.58;1.90;;;;;;;30.31;93.79;99883.03;4936672;29;20272;-77
2023/07/09 08:41:35;;;;;;;2.50;1.30;;;;;;;30.60;91.37;99861.56;4917687;29;20260;-77
2023/07/09 08:44:51;;;;;;;4.68;2.35;;;;;;;30.90;93.54;99899.09;4934309;29;20315;-77
2023/07/09 08:47:36;;;;;;;4.70;2.08;;;;;;;31.82;91.00;99953.16;4912213;29;20243;-77
2023/07/09 08:50:10;;;;;;;4.78;2.10;;;;;;;31.88;87.83;99907.16;4933705;29;20312;-76
2023/07/09 08:52:43;;;;;;;5.95;2.10;;;;;;;32.29;86.21;99895.28;4926255;29;20306;-76
2023/07/09 08:55:32;;;;;;;15.15;3.80;;;;;;;32.62;87.55;99918.78;4936639;29;20225;-77
2023/07/09 08:58:14;;;;;;;11.93;3.58;;;;;;;31.93;83.85;99795.47;4931611;28;20217;-76
2023/07/09 09:00:55;;;;;;;10.15;4.07;;;;;;;32.12;87.15;99822.91;4934755;29;20225;-77
2023/07/09 09:03:38;;;;;;;8.48;3.03;;;;;;;31.61;90.53;99801.94;4915999;29;20308;-76
2023/07/09 09:06:13;;;;;;;14.15;3.97;;;;;;;32.46;89.26;99880.94;4937983;29;20225;-77
2023/07/09 09:08:43;;;;;;;8.40;2.60;;;;;;;32.89;77.70;99773.84;4940648;28;20279;-77
2023/07/09 09:11:15;;;;;;;12.68;3.55;;;;;;;32.49;78.63;99734.75;4937182;29;20693;-77
2023/07/09 09:13:43;;;;;;;13.10;3.15;;;;;;;33.62;82.28;99873.75;4909635;29;20232;-77
2023/07/09 09:16:33;;;;;;;18.50;4.40;;;;;;;33.20;75.65;99703.31;4926435;29;20229;-77
2023/07/09 09:19:01;;;;;;;22.42;5.18;;;;;;;33.29;83.16;99797.47;4931143;29;20276;-77
2023/07/09 09:21:34;;;;;;;10.40;3.30;;;;;;;33.11;78.83;99717.91;4921218;29;20291;-77
2023/07/09 09:24:26;;;;;;;26.95;6.10;;;;;;;32.52;79.16;99664.19;4918192;29;20225;-78
2023/07/09 09:26:56;;;;;;;10.10;3.25;;;;;;;33.44;77.64;99746.69;4924644;29;20225;-78
2023/07/09 09:29:24;;;;;;;11.07;3.55;;;;;;;34.22;72.60;99752.75;4918530;29;20313;-77
2023/07/09 09:31:56;;;;;;;10.23;3.33;;;;;;;33.49;67.21;99590.84;4939219;28;20247;-77
2023/07/09 09:34:29;;;;;;;10.00;2.97;;;;;;;32.99;69.54;99562.94;4922878;29;20231;-78
2023/07/09 09:36:58;;;;;;;10.32;3.25;;;;;;;32.50;66.58;99470.97;4920115;29;20247;-78
2023/07/09 09:39:25;;;;;;;13.90;3.92;;;;;;;33.39;71.73;99631.16;4928786;29;20233;-77
2023/07/09 09:41:57;;;;;;;12.55;3.33;;;;;;;33.44;68.65;99595.06;4921674;29;20248;-77
2023/07/09 09:44:26;;;;;;;12.75;3.10;;;;;;;33.36;69.18;99566.53;4939524;29;20229;-77
2023/07/09 09:46:56;;;;;;;19.48;4.93;;;;;;;33.91;62.89;99547.31;4940988;29;20225;-78
2023/07/09 09:49:26;;;;;;;11.23;3.08;;;;;;;33.70;70.67;99593.31;4937249;29;20221;-77
2023/07/09 09:51:56;;;;;;;12.13;3.05;;;;;;;33.43;64.21;99475.47;4942605;29;20327;-77
2023/07/09 09:54:30;;;;;;;11.43;2.78;;;;;;;34.38;61.26;99532.47;4924255;29;20247;-77
2023/07/09 09:56:57;;;;;;;12.90;3.83;;;;;;;34.58;63.43;99562.31;4940386;29;20240;-77
2023/07/09 09:59:27;;;;;;;9.60;3.30;;;;;;;34.71;62.90;99545.41;4942123;29;20232;-77
2023/07/09 10:02:03;;;;;;;7.05;2.53;;;;;;;34.52;63.86;99549.22;4922216;29;20224;-77
2023/07/09 10:04:30;;;;;;;9.55;3.42;;;;;;;34.13;61.08;99458.19;4923598;29;20240;-77
2023/07/09 10:07:01;;;;;;;9.93;3.33;;;;;;;34.95;57.95;99503.50;4920156;29;20221;-78
2023/07/09 10:09:48;;;;;;;9.30;3.03;;;;;;;34.28;60.20;99434.63;4924127;29;20292;-77
2023/07/09 10:12:30;;;;;;;8.02;2.80;;;;;;;35.11;55.83;99461.50;4919830;29;20249;-77
2023/07/09 10:15:12;;;;;;;8.38;2.78;;;;;;;35.51;52.76;99406.66;4936777;29;20229;-77
2023/07/09 10:17:45;;;;;;;5.88;2.60;;;;;;;35.23;52.91;99362.09;4942961;29;20235;-76
2023/07/09 10:20:30;;;;;;;10.15;3.00;;;;;;;35.03;51.29;99291.97;4929415;29;20233;-77
2023/07/09 10:23:12;;;;;;;7.97;2.72;;;;;;;34.83;48.56;99214.53;4926058;29;20229;-77
2023/07/09 10:25:44;;;;;;;8.20;2.88;;;;;;;35.53;47.63;99280.88;4920245;29;20221;-77
2023/07/09 10:28:23;;;;;;;16.85;4.63;;;;;;;36.13;49.01;99349.22;4935051;29;20220;-76
2023/07/09 10:31:18;;;;;;;10.35;3.20;;;;;;;37.20;50.55;99433.19;4943366;29;20601;-77
2023/07/09 10:34:10;;;;;;;7.57;2.40;;;;;;;35.99;52.32;99318.81;4942987;29;20284;-77
2023/07/09 10:37:21;;;;;;;5.75;2.08;;;;;;;35.33;54.44;99331.75;4939729;29;20221;-76
2023/07/09 10:39:53;;;;;;;9.30;2.80;;;;;;;36.65;50.08;99391.94;4876493;29;20237;-77
2023/07/09 10:42:44;;;;;;;11.88;3.65;;;;;;;36.23;50.24;99311.31;4909075;29;20241;-76
2023/07/09 10:45:20;;;;;;;18.38;4.97;;;;;;;36.06;48.10;99246.38;4935391;29;20225;-77
2023/07/09 10:47:49;;;;;;;15.13;3.47;;;;;;;35.70;47.90;99190.94;4938996;29;20221;-77
2023/07/09 10:50:36;;;;;;;13.13;3.08;;;;;;;35.49;46.69;99141.16;4935570;29;20689;-77
2023/07/09 10:53:32;;;;;;;23.98;5.97;;;;;;;36.00;47.95;99237.97;4920661;29;20221;-76
2023/07/09 10:56:26;;;;;;;19.17;4.82;;;;;;;36.36;48.88;99282.41;4933404;29;20240;-77
2023/07/09 10:59:22;;;;;;;11.05;3.13;;;;;;;36.38;46.66;99217.84;4938544;29;20228;-77
2023/07/09 11:01:57;;;;;;;14.60;3.42;;;;;;;36.22;41.96;99045.38;4918663;29;20713;-77
2023/07/09 11:04:33;;;;;;;19.35;4.20;;;;;;;36.13;43.80;99076.75;4920988;29;20228;-76
2023/07/09 11:07:10;;;;;;;31.50;6.63;;;;;;;37.09;45.04;99232.38;4937181;29;20221;-78
2023/07/09 11:09:41;;;;;;;14.80;3.47;;;;;;;37.31;43.94;99206.72;4926040;29;20221;-76
2023/07/09 11:12:36;;;;;;;16.08;4.28;;;;;;;37.36;42.67;99159.28;4936935;29;20294;-77
2023/07/09 11:15:12;;;;;;;16.95;4.75;;;;;;;37.32;44.79;99196.53;4920017;29;20242;-78
2023/07/09 11:17:42;;;;;;;11.50;2.92;;;;;;;37.26;41.52;99093.38;4941195;29;20240;-77
2023/07/09 11:20:25;;;;;;;20.27;5.55;;;;;;;37.40;44.04;99190.94;4920427;29;20232;-76
2023/07/09 11:22:54;;;;;;;6.55;1.95;;;;;;;36.93;42.11;99078.22;4921389;29;20605;-76
2023/07/09 11:25:46;;;;;;;8.02;2.28;;;;;;;37.04;40.07;99017.13;4938708;29;20233;-77
2023/07/09 11:28:13;;;;;;;14.10;4.25;;;;;;;37.08;40.40;99035.00;4928884;29;20225;-77
2023/07/09 11:30:51;;;;;;;14.07;4.40;;;;;;;37.31;40.05;99043.19;4922010;29;20288;-77
2023/07/09 11:33:20;;;;;;;14.73;3.60;;;;;;;37.27;40.75;99056.50;4932212;29;20310;-77